createdAt,value
2022-08-19T00:04:41.543Z,99915.13
2022-08-19T00:09:44.368Z,99909.19
2022-08-19T00:14:47.506Z,99909.28
2022-08-19T00:19:50.269Z,99911.84
2022-08-19T00:24:52.965Z,99916.09
2022-08-19T00:29:55.734Z,99920.41
2022-08-19T00:34:58.668Z,99914.47
2022-08-19T00:40:01.569Z,99912.00
2022-08-19T00:45:14.778Z,99913.72
2022-08-19T00:50:20.926Z,99883.78
2022-08-19T00:55:26.230Z,99911.25
2022-08-19T01:00:29.898Z,99901.94
2022-08-19T01:05:33.103Z,99906.28
2022-08-19T01:10:39.574Z,99890.97
2022-08-19T01:15:46.894Z,99896.97
2022-08-19T01:20:49.759Z,99898.75
2022-08-19T01:25:53.690Z,99897.97
2022-08-19T01:30:57.202Z,99895.47
2022-08-19T01:36:16.257Z,99891.19
2022-08-19T01:41:19.174Z,99897.13
2022-08-19T01:46:24.997Z,99897.19
2022-08-19T01:51:28.700Z,99893.84
2022-08-19T01:56:31.524Z,99899.00
2022-08-19T02:01:36.046Z,99899.88
2022-08-19T02:06:40.696Z,99900.81
2022-08-19T02:11:43.573Z,99902.56
2022-08-19T02:16:46.548Z,99906.88
2022-08-19T02:21:49.377Z,99902.56
2022-08-19T02:26:52.652Z,99900.81
2022-08-19T02:31:55.489Z,99898.25
2022-08-19T02:37:03.110Z,99900.91
2022-08-19T02:42:07.145Z,99900.97
2022-08-19T02:47:11.510Z,99895.03
2022-08-19T02:52:14.346Z,99895.91
2022-08-19T02:57:19.506Z,99889.94
2022-08-19T03:02:31.355Z,99896.78
2022-08-19T03:07:36.456Z,99901.06
2022-08-19T03:12:42.161Z,99908.78
2022-08-19T03:17:44.915Z,99895.13
2022-08-19T03:22:47.753Z,99893.38
2022-08-19T03:27:50.606Z,99903.63
2022-08-19T03:32:57.324Z,99902.69
2022-08-19T03:38:00.967Z,99901.84
2022-08-19T03:43:04.065Z,99894.75
2022-08-19T03:48:09.878Z,99904.00
2022-08-19T03:53:14.718Z,99893.66
2022-08-19T03:58:17.449Z,99899.75
2022-08-19T04:03:20.676Z,99869.84
2022-08-19T04:08:23.840Z,99902.53
2022-08-19T04:13:26.712Z,99907.81
2022-08-19T04:18:35.969Z,99901.03
2022-08-19T04:23:45.606Z,99890.81
2022-08-19T04:28:49.224Z,99904.53
2022-08-19T04:33:52.025Z,99896.78
2022-08-19T04:38:56.764Z,99889.88
2022-08-19T04:44:04.149Z,99896.69
2022-08-19T04:49:13.142Z,99898.34
2022-08-19T04:54:23.922Z,99893.22
2022-08-19T04:59:43.512Z,99888.94
2022-08-19T05:04:46.266Z,99888.94
2022-08-19T05:09:56.642Z,99886.41
2022-08-19T05:15:07.246Z,99892.47
2022-08-19T05:20:29.111Z,99896.78
2022-08-19T05:25:32.721Z,99905.38
2022-08-19T05:30:46.857Z,99913.09
2022-08-19T05:35:50.760Z,99900.25
2022-08-19T05:41:00.291Z,99877.94
2022-08-19T05:46:15.612Z,99900.16
2022-08-19T05:52:07.425Z,99895.81
2022-08-19T05:57:11.759Z,99822.88
2022-08-19T06:02:16.505Z,99881.84
2022-08-19T06:07:20.574Z,99896.34
2022-08-19T06:12:30.535Z,99904.09
2022-08-19T06:17:36.099Z,99895.47
2022-08-19T06:22:45.888Z,99899.59
2022-08-19T06:28:13.574Z,99897.06
2022-08-19T06:33:11.695Z,99903.16
2022-08-19T06:38:14.662Z,99907.47
2022-08-19T06:43:18.561Z,99905.78
2022-08-19T06:48:21.684Z,99906.72
2022-08-19T06:53:44.428Z,99885.94
2022-08-19T06:58:53.817Z,99898.22
2022-08-19T07:03:57.879Z,99895.25
2022-08-19T07:09:01.765Z,99893.63
2022-08-19T07:14:19.279Z,99902.34
2022-08-19T07:19:23.461Z,99901.63
2022-08-19T07:24:31.187Z,99893.47
2022-08-19T07:29:39.458Z,99898.41
2022-08-19T07:34:42.321Z,99919.34
2022-08-19T07:39:45.958Z,99923.06
2022-08-19T07:44:50.138Z,99904.28
2022-08-19T07:49:53.682Z,99911.22
2022-08-19T07:54:56.376Z,99933.50
2022-08-19T07:59:59.966Z,99931.13
2022-08-19T08:05:21.607Z,99924.34
2022-08-19T08:10:30.837Z,99915.13
2022-08-19T08:15:35.686Z,99918.44
2022-08-19T08:20:43.213Z,99923.47
2022-08-19T08:25:46.200Z,99925.34
2022-08-19T08:30:54.894Z,99928.72
2022-08-19T08:35:58.409Z,99936.94
2022-08-19T08:41:15.107Z,99928.53
2022-08-19T08:46:32.456Z,99938.03
2022-08-19T08:51:37.571Z,99943.50
2022-08-19T08:56:42.100Z,99940.00
2022-08-19T09:01:47.763Z,99939.94
2022-08-19T09:06:56.694Z,99945.00
2022-08-19T09:12:12.372Z,99947.59
2022-08-19T09:17:16.056Z,99953.16
2022-08-19T09:22:25.869Z,99954.78
2022-08-19T09:27:41.883Z,99949.66
2022-08-19T09:32:54.920Z,99942.47
2022-08-19T09:37:59.851Z,99943.06
2022-08-19T09:43:09.954Z,99950.94
2022-08-19T09:48:19.129Z,99957.78
2022-08-19T09:53:39.714Z,99943.44
2022-08-19T09:58:45.103Z,99955.31
2022-08-19T10:03:54.271Z,99955.97
2022-08-19T10:09:02.583Z,99952.28
2022-08-19T10:14:29.648Z,99967.25
2022-08-19T10:19:38.769Z,99956.75
2022-08-19T10:24:46.380Z,99965.09
2022-08-19T10:29:54.855Z,99966.34
2022-08-19T10:41:16.084Z,99966.50
2022-08-19T10:46:23.084Z,99962.53
2022-08-19T10:51:47.909Z,99962.34
2022-08-19T10:56:54.261Z,99965.13
2022-08-19T11:02:04.824Z,99945.13
2022-08-19T11:07:11.501Z,99950.66
2022-08-19T11:12:15.114Z,99966.75
2022-08-19T11:17:18.158Z,99960.88
2022-08-19T11:22:23.540Z,99977.22
2022-08-19T11:27:35.091Z,99975.25
2022-08-19T11:32:40.227Z,99973.19
2022-08-19T11:37:43.034Z,99981.88
2022-08-19T11:42:58.039Z,99989.56
2022-08-19T11:48:00.817Z,99978.53
2022-08-19T11:53:03.627Z,99975.91
2022-08-19T11:58:18.639Z,99983.59
2022-08-19T12:03:25.147Z,99986.19
2022-08-19T12:08:28.077Z,99992.38
2022-08-19T12:13:31.915Z,99989.09
2022-08-19T12:18:37.569Z,99992.66
2022-08-19T12:23:40.508Z,100001.22
2022-08-19T12:28:43.938Z,100001.16
2022-08-19T12:33:47.930Z,100009.75
2022-08-19T12:38:50.696Z,100013.13
2022-08-19T12:43:53.801Z,100013.94
2022-08-19T12:48:58.090Z,100013.78
2022-08-19T12:54:02.931Z,100021.16
2022-08-19T12:59:26.371Z,100020.72
2022-08-19T13:04:48.007Z,100018.22
2022-08-19T13:09:53.275Z,100025.25
2022-08-19T13:14:57.646Z,100020.25
2022-08-19T13:20:01.425Z,100045.28
2022-08-19T13:25:07.320Z,100050.66
2022-08-19T13:30:30.427Z,100054.38
2022-08-19T13:35:35.528Z,100057.94
2022-08-19T13:41:25.541Z,100062.28
2022-08-19T13:46:40.109Z,100075.19
2022-08-19T13:51:48.406Z,100060.59
2022-08-19T13:57:00.698Z,100075.13
2022-08-19T14:07:25.068Z,100071.59
2022-08-19T14:12:28.658Z,100086.16
2022-08-19T14:17:32.055Z,100087.88
2022-08-19T14:22:36.189Z,100091.28
2022-08-19T14:27:40.093Z,100094.53
2022-08-19T14:32:44.646Z,100097.91
2022-08-19T14:37:47.741Z,100104.75
2022-08-19T14:42:50.620Z,100101.22
2022-08-19T14:47:53.794Z,100103.72
2022-08-19T14:53:08.135Z,100105.47
2022-08-19T14:58:29.266Z,100114.97
2022-08-19T15:03:33.588Z,100112.53
2022-08-19T15:08:38.162Z,100115.22
2022-08-19T15:13:40.948Z,100111.78
2022-08-19T15:18:46.508Z,100116.06
2022-08-19T15:23:52.754Z,100124.63
2022-08-19T15:28:55.860Z,100127.97
2022-08-19T15:33:59.193Z,100116.81
2022-08-19T15:39:02.726Z,100120.22
2022-08-19T15:44:09.963Z,100120.13
2022-08-19T15:49:14.503Z,100125.25
2022-08-19T15:54:22.146Z,100125.22
2022-08-19T15:59:47.147Z,100129.47
2022-08-19T16:05:10.938Z,100131.19
2022-08-19T16:10:26.954Z,100137.16
2022-08-19T16:15:31.534Z,100126.03
2022-08-19T16:20:35.711Z,100123.47
2022-08-19T16:25:39.792Z,100127.69
2022-08-19T16:30:48.525Z,100144.81
2022-08-19T16:36:00.292Z,100144.72
2022-08-19T16:41:10.135Z,100141.25
2022-08-19T16:46:13.014Z,100145.44
2022-08-19T16:51:23.086Z,100146.09
2022-08-19T16:56:26.166Z,100144.19
2022-08-19T17:01:29.616Z,100151.75
2022-08-19T17:06:32.459Z,100139.59
2022-08-19T17:11:36.038Z,100148.06
2022-08-19T17:16:39.549Z,100146.28
2022-08-19T17:21:45.044Z,100156.50
2022-08-19T17:26:47.664Z,100165.84
2022-08-19T17:31:50.399Z,100161.41
2022-08-19T17:36:57.332Z,100155.16
2022-08-19T17:42:03.030Z,100157.59
2022-08-19T17:47:06.087Z,100154.03
2022-08-19T17:52:10.165Z,100158.94
2022-08-19T17:57:14.456Z,100162.34
2022-08-19T18:02:21.430Z,100159.75
2022-08-19T18:07:24.876Z,100162.22
2022-08-19T18:12:27.650Z,100165.53
2022-08-19T18:17:30.692Z,100156.00
2022-08-19T18:22:39.346Z,100153.31
2022-08-19T18:27:43.774Z,100167.72
2022-08-19T18:32:49.930Z,100160.59
2022-08-19T18:37:52.760Z,100172.34
2022-08-19T18:43:14.325Z,100167.84
2022-08-19T18:48:35.315Z,100174.03
2022-08-19T18:53:39.985Z,100173.47
2022-08-19T18:58:43.890Z,100172.06
2022-08-19T19:03:53.824Z,100179.16
2022-08-19T19:08:57.189Z,100175.88
2022-08-19T19:14:04.110Z,100183.69
2022-08-19T19:19:13.700Z,100186.31
2022-08-19T19:24:20.736Z,100181.13
2022-08-19T19:29:24.466Z,100185.19
2022-08-19T19:34:29.079Z,100199.81
2022-08-19T19:39:46.093Z,100210.19
2022-08-19T19:44:51.787Z,100202.56
2022-08-19T19:50:14.798Z,100195.63
2022-08-19T19:55:18.807Z,100201.50
2022-08-19T20:00:22.128Z,100204.97
2022-08-19T20:05:25.574Z,100205.78
2022-08-19T20:10:28.413Z,100205.88
2022-08-19T20:15:32.443Z,100205.84
2022-08-19T20:20:35.372Z,100204.97
2022-08-19T20:25:38.893Z,100201.50
2022-08-19T20:30:46.429Z,100199.81
2022-08-19T20:35:50.816Z,100201.44
2022-08-19T20:40:53.753Z,100210.72
2022-08-19T20:45:56.684Z,100212.44
2022-08-19T20:50:59.735Z,100214.84
2022-08-19T20:56:02.943Z,100214.84
2022-08-19T21:01:06.992Z,100217.41
2022-08-19T21:06:11.747Z,100231.19
2022-08-19T21:11:16.641Z,100226.25
2022-08-19T21:16:23.730Z,100233.19
2022-08-19T21:21:26.675Z,100229.88
2022-08-19T21:26:29.505Z,100230.66
2022-08-19T21:31:32.891Z,100234.91
2022-08-19T21:36:35.823Z,100227.16
2022-08-19T21:41:43.026Z,100232.28
2022-08-19T21:46:50.568Z,100239.84
2022-08-19T21:51:56.504Z,100238.06
2022-08-19T21:56:59.265Z,100238.72
2022-08-19T22:02:15.850Z,100245.38
2022-08-19T22:07:22.910Z,100244.97
2022-08-19T22:12:33.021Z,100245.53
2022-08-19T22:17:36.530Z,100247.91
2022-08-19T22:22:40.828Z,100253.88
2022-08-19T22:27:43.607Z,100242.88
2022-08-19T22:32:56.401Z,100242.88
2022-08-19T22:37:59.978Z,100245.59
2022-08-19T22:43:12.296Z,100265.44
2022-08-19T22:48:17.789Z,100258.84
2022-08-19T22:53:20.503Z,100262.66
2022-08-19T22:58:28.049Z,100259.44
2022-08-19T23:03:31.383Z,100274.09
2022-08-19T23:08:34.565Z,100283.47
2022-08-19T23:13:41.108Z,100297.94
2022-08-19T23:18:44.017Z,100297.88
2022-08-19T23:23:46.997Z,100300.31
2022-08-19T23:29:07.928Z,100307.13
2022-08-19T23:34:10.783Z,100311.31
2022-08-19T23:39:13.479Z,100308.69
2022-08-19T23:44:16.273Z,100309.53
2022-08-19T23:49:21.139Z,100318.75
2022-08-19T23:54:43.110Z,100328.97
2022-08-19T23:59:46.582Z,100328.78
